Time;durP1;ratioP1;P1;durP2;ratioP2;P2;SDS_P1;SDS_P2;PMS_P1;PMS_P2;Temp;Humidity;BMP_temperature;BMP_pressure;BME280_temperature;BME280_humidity;BME280_pressure;Samples;Min_cycle;Max_cycle;Signal;HPM_P1;HPM_P2
2023/05/23 00:01:30;;;;;;;25.42;14.45;;;;;;;-145.69;100.00;52452.31;5064901;28;20198;-78
2023/05/23 00:03:56;;;;;;;26.20;14.63;;;;;;;-145.69;100.00;52418.63;5072167;28;20203;-78
2023/05/23 00:06:23;;;;;;;25.40;15.52;;;;;;;-145.69;100.00;52458.25;5072032;28;20241;-78
2023/05/23 00:08:50;;;;;;;28.52;15.73;;;;;;;-145.69;100.00;52420.63;5072220;28;20576;-78
2023/05/23 00:11:19;;;;;;;24.15;14.38;;;;;;;-145.69;100.00;52478.06;5061138;28;20273;-78
2023/05/23 00:13:46;;;;;;;27.83;16.63;;;;;;;-145.69;100.00;52432.50;5052392;28;20231;-79
2023/05/23 00:16:12;;;;;;;33.00;16.38;;;;;;;-145.69;100.00;52444.38;5052106;28;20594;-78
2023/05/23 00:18:41;;;;;;;33.10;17.42;;;;;;;-145.69;100.00;52456.28;5052219;28;20206;-77
2023/05/23 00:21:08;;;;;;;31.90;16.83;;;;;;;-145.69;100.00;52442.41;5052923;28;20253;-77
2023/05/23 00:23:35;;;;;;;31.83;15.25;;;;;;;-145.69;100.00;52424.59;5050034;28;20278;-77
2023/05/23 00:26:04;;;;;;;30.42;16.83;;;;;;;-145.69;100.00;52464.19;5052329;28;20207;-78
2023/05/23 00:28:31;;;;;;;38.08;18.75;;;;;;;-145.69;100.00;52444.38;5052015;28;20213;-77
2023/05/23 00:30:58;;;;;;;32.28;16.77;;;;;;;-145.69;100.00;52485.97;5058126;28;20671;-78
2023/05/23 00:33:24;;;;;;;28.80;15.95;;;;;;;-145.69;100.00;52424.59;5071880;28;20194;-78
2023/05/23 00:35:51;;;;;;;34.83;19.47;;;;;;;-145.69;100.00;52462.22;5072000;28;20202;-78
2023/05/23 00:38:18;;;;;;;33.47;18.83;;;;;;;-145.69;100.00;52444.38;5072337;28;20206;-78
2023/05/23 00:40:47;;;;;;;36.07;19.10;;;;;;;-145.69;100.00;52460.22;5067161;28;20188;-78
2023/05/23 00:43:14;;;;;;;40.20;19.42;;;;;;;-145.69;100.00;52440.44;5051756;28;20289;-78
2023/05/23 00:45:42;;;;;;;45.30;21.23;;;;;;;-145.69;100.00;52448.34;5051923;28;20203;-78
2023/05/23 00:48:10;;;;;;;32.40;16.93;;;;;;;-145.69;100.00;52432.50;5051795;28;20204;-79
2023/05/23 00:50:37;;;;;;;40.33;19.40;;;;;;;-145.69;100.00;52426.56;5053389;28;20673;-78
2023/05/23 00:53:04;;;;;;;46.20;20.08;;;;;;;-145.69;100.00;52462.22;5075224;28;20233;-78
2023/05/23 00:55:31;;;;;;;39.37;19.60;;;;;;;-145.69;100.00;52452.31;5075403;28;20202;-78
2023/05/23 00:57:57;;;;;;;35.20;19.00;;;;;;;-145.69;100.00;52430.53;5075462;28;20202;-78
2023/05/23 01:00:25;;;;;;;34.00;17.98;;;;;;;-145.69;100.00;52472.13;5074854;28;20210;-77
2023/05/23 01:02:56;;;;;;;33.92;17.45;;;;;;;-145.69;100.00;52440.44;5064021;28;20196;-77
2023/05/23 01:05:23;;;;;;;36.72;19.00;;;;;;;-145.69;100.00;52450.31;5035205;28;20206;-78
2023/05/23 01:07:50;;;;;;;43.10;19.67;;;;;;;-145.69;100.00;52432.50;5035385;28;20200;-78
2023/05/23 01:10:20;;;;;;;36.45;19.38;;;;;;;-145.69;100.00;52424.59;5066473;28;20191;-77
2023/05/23 01:12:56;;;;;;;42.42;20.13;;;;;;;-145.69;100.00;52440.44;5055428;28;20229;-78
2023/05/23 01:15:28;;;;;;;35.08;18.85;;;;;;;-145.69;100.00;52450.31;5056101;28;20194;-77
2023/05/23 01:18:03;;;;;;;43.20;21.10;;;;;;;-145.69;100.00;52438.44;5054965;28;20678;-77
2023/05/23 01:20:35;;;;;;;45.83;20.73;;;;;;;-145.69;100.00;52422.59;5055194;28;20207;-77
2023/05/23 01:26:33;;;;;;;45.22;21.58;;;;;;;-145.69;100.00;52432.50;5051895;28;20202;-77
2023/05/23 01:29:09;;;;;;;46.85;22.00;;;;;;;-145.69;100.00;52452.31;5057741;28;20248;-78
2023/05/23 01:31:37;;;;;;;41.10;20.63;;;;;;;-145.69;100.00;52438.44;5058749;28;20215;-78
2023/05/23 01:34:05;;;;;;;36.55;19.10;;;;;;;-145.69;100.00;52442.41;5054684;28;20203;-78
2023/05/23 01:36:34;;;;;;;43.95;21.40;;;;;;;-145.69;100.00;52454.28;5067239;28;20249;-77
2023/05/23 01:39:01;;;;;;;42.08;21.67;;;;;;;-145.69;100.00;52426.56;5074310;28;20759;-77
2023/05/23 01:41:28;;;;;;;40.53;20.73;;;;;;;-145.69;100.00;52450.31;5074515;28;20565;-77
2023/05/23 01:43:55;;;;;;;49.15;21.88;;;;;;;-145.69;100.00;52440.44;5074512;28;20207;-78
2023/05/23 01:46:23;;;;;;;37.13;21.00;;;;;;;-145.69;100.00;52412.69;5063033;28;20205;-78
2023/05/23 01:48:50;;;;;;;46.35;22.50;;;;;;;-145.69;100.00;52430.53;5054484;28;20235;-78
2023/05/23 01:51:17;;;;;;;41.17;20.73;;;;;;;-145.69;100.00;52444.38;5068893;28;20203;-78
2023/05/23 01:53:46;;;;;;;44.90;21.70;;;;;;;-145.69;100.00;52436.47;5054446;28;20206;-77
2023/05/23 01:56:13;;;;;;;46.38;22.50;;;;;;;-145.69;100.00;52434.47;5060752;28;20600;-77
2023/05/23 01:58:40;;;;;;;48.03;22.23;;;;;;;-145.69;100.00;52452.31;5074425;28;20210;-77
2023/05/23 02:01:06;;;;;;;49.53;24.13;;;;;;;-145.69;100.00;52432.50;5074288;28;20209;-77
2023/05/23 02:03:35;;;;;;;64.20;28.15;;;;;;;-145.69;100.00;52458.25;5055958;28;20208;-77
2023/05/23 02:06:01;;;;;;;90.53;31.42;;;;;;;-145.69;100.00;52412.69;5057592;28;20558;-78
2023/05/23 02:08:28;;;;;;;167.80;47.22;;;;;;;-145.69;100.00;52450.31;5074031;28;20201;-77
2023/05/23 02:10:54;;;;;;;153.20;46.75;;;;;;;-145.69;100.00;52448.34;5074064;28;20719;-77
2023/05/23 02:13:21;;;;;;;59.70;25.33;;;;;;;-145.69;100.00;52432.50;5073610;28;20693;-77
2023/05/23 02:15:47;;;;;;;40.92;20.35;;;;;;;-145.69;100.00;52408.75;5067844;28;20287;-78
2023/05/23 02:18:14;;;;;;;40.33;20.45;;;;;;;-145.69;100.00;52424.59;5069150;28;20198;-78
2023/05/23 02:20:42;;;;;;;41.75;20.55;;;;;;;-145.69;100.00;52420.63;5073869;28;20209;-78
2023/05/23 02:23:08;;;;;;;40.90;20.77;;;;;;;-145.69;100.00;52404.78;5073674;28;20221;-78
2023/05/23 02:25:38;;;;;;;47.80;22.98;;;;;;;-145.69;100.00;52442.41;5073616;28;20241;-77
2023/05/23 02:28:04;;;;;;;52.10;24.63;;;;;;;-145.69;100.00;52430.53;5063925;28;20191;-78
2023/05/23 02:30:31;;;;;;;59.45;24.52;;;;;;;-145.69;100.00;52438.44;5053278;28;20191;-79
2023/05/23 02:32:57;;;;;;;91.65;33.50;;;;;;;-145.69;100.00;52440.44;5053552;28;20223;-78
2023/05/23 02:35:23;;;;;;;91.15;33.95;;;;;;;-145.69;100.00;52448.34;5053570;28;20199;-78
2023/05/23 02:37:57;;;;;;;108.05;36.75;;;;;;;-145.69;100.00;52422.59;5054816;28;20200;-78
2023/05/23 02:40:24;;;;;;;99.80;35.53;;;;;;;-145.69;100.00;52446.38;5063878;28;20207;-78
2023/05/23 02:42:51;;;;;;;126.68;40.60;;;;;;;-145.69;100.00;52386.97;5053506;28;20222;-78
2023/05/23 02:45:18;;;;;;;141.35;44.78;;;;;;;-145.69;100.00;52452.31;5053703;28;20230;-77
2023/05/23 02:47:44;;;;;;;214.27;53.35;;;;;;;-145.69;100.00;52412.69;5053286;28;20673;-78
2023/05/23 02:50:11;;;;;;;194.48;52.70;;;;;;;-145.69;100.00;52420.63;5053044;28;20231;-78
2023/05/23 02:52:38;;;;;;;180.40;50.35;;;;;;;-145.69;100.00;52396.84;5065577;28;20254;-78
2023/05/23 02:55:07;;;;;;;171.85;48.28;;;;;;;-145.69;100.00;52398.84;5047997;28;20587;-77
2023/05/23 02:57:33;;;;;;;177.63;51.28;;;;;;;-145.69;100.00;52444.38;5033094;28;20208;-78
2023/05/23 03:00:00;;;;;;;164.77;51.35;;;;;;;-145.69;100.00;52396.84;5033259;28;20203;-78
2023/05/23 03:02:26;;;;;;;136.57;48.15;;;;;;;-145.69;100.00;52432.50;5033119;28;20203;-78
2023/05/23 03:04:54;;;;;;;142.48;47.47;;;;;;;-145.69;100.00;52390.91;5058746;28;20243;-78
2023/05/23 03:07:21;;;;;;;115.75;50.13;;;;;;;-145.69;100.00;52420.63;5071854;28;20496;-78
2023/05/23 03:09:47;;;;;;;106.78;43.30;;;;;;;-145.69;100.00;52404.78;5068468;28;20277;-78
2023/05/23 03:12:15;;;;;;;107.82;41.63;;;;;;;-145.69;100.00;52410.72;5072938;28;20227;-78
2023/05/23 03:14:42;;;;;;;101.82;39.25;;;;;;;-145.69;100.00;52408.75;5072443;28;20198;-78
2023/05/23 03:17:08;;;;;;;97.68;39.08;;;;;;;-145.69;100.00;52412.69;5058357;28;20199;-78
2023/05/23 03:19:34;;;;;;;110.10;41.80;;;;;;;-145.69;100.00;52408.75;5052833;28;20662;-78
2023/05/23 03:22:01;;;;;;;103.45;39.65;;;;;;;-145.69;100.00;52422.59;5052708;28;20195;-77
2023/05/23 03:24:27;;;;;;;112.63;41.10;;;;;;;-145.69;100.00;52392.91;5052869;28;20206;-77
2023/05/23 03:26:57;;;;;;;114.45;42.30;;;;;;;-145.69;100.00;52432.50;5066142;28;20199;-77
2023/05/23 03:29:25;;;;;;;119.78;41.33;;;;;;;-145.69;100.00;52440.44;5057573;28;20253;-78
2023/05/23 03:31:51;;;;;;;96.15;36.58;;;;;;;-145.69;100.00;52408.75;5052430;28;20202;-78
2023/05/23 03:34:17;;;;;;;111.28;41.78;;;;;;;-145.69;100.00;52404.78;5058550;28;20195;-78
2023/05/23 03:36:44;;;;;;;101.40;38.45;;;;;;;-145.69;100.00;52420.63;5072670;28;20210;-78
2023/05/23 03:39:11;;;;;;;86.53;35.38;;;;;;;-145.69;100.00;52404.78;5072545;28;20203;-78
2023/05/23 03:41:37;;;;;;;106.20;41.13;;;;;;;-145.69;100.00;52412.69;5057731;28;20211;-78
2023/05/23 03:44:04;;;;;;;99.97;40.75;;;;;;;-145.69;100.00;52430.53;5052412;28;20200;-78
2023/05/23 03:46:31;;;;;;;97.18;38.25;;;;;;;-145.69;100.00;52418.63;5052576;28;20267;-78
2023/05/23 03:48:58;;;;;;;114.30;41.78;;;;;;;-145.69;100.00;52412.69;5052407;28;20235;-79
2023/05/23 03:51:24;;;;;;;111.40;42.80;;;;;;;-145.69;100.00;52410.72;5053074;28;20349;-78
2023/05/23 03:53:51;;;;;;;100.85;39.97;;;;;;;-145.69;100.00;52430.53;5059467;28;20273;-79
2023/05/23 03:56:17;;;;;;;95.97;37.50;;;;;;;-145.69;100.00;52420.63;5052441;28;20562;-78
2023/05/23 03:58:44;;;;;;;90.20;35.08;;;;;;;-145.69;100.00;52424.59;5052424;28;20203;-78
2023/05/23 04:01:11;;;;;;;107.13;38.58;;;;;;;-145.69;100.00;52400.81;5052372;28;20223;-78
2023/05/23 04:03:39;;;;;;;92.85;37.15;;;;;;;-145.69;100.00;52440.44;5053776;28;20211;-78
2023/05/23 04:06:06;;;;;;;98.70;39.97;;;;;;;-145.69;100.00;52430.53;5054652;28;20291;-78
2023/05/23 04:08:34;;;;;;;83.97;34.58;;;;;;;-145.69;100.00;52408.75;5052495;28;20199;-78
2023/05/23 04:11:01;;;;;;;68.13;31.40;;;;;;;-145.69;100.00;52428.53;5052039;28;20210;-78
2023/05/23 04:13:27;;;;;;;81.75;32.90;;;;;;;-145.69;100.00;52396.84;5052188;28;20285;-79
2023/05/23 04:15:54;;;;;;;73.13;30.42;;;;;;;-145.69;100.00;52420.63;5057097;28;20199;-78
2023/05/23 04:18:22;;;;;;;67.60;29.17;;;;;;;-145.69;100.00;52416.66;5072198;28;20252;-79
2023/05/23 04:20:50;;;;;;;96.50;36.35;;;;;;;-145.69;100.00;52396.84;5072369;28;20638;-79
2023/05/23 04:23:16;;;;;;;94.82;38.50;;;;;;;-145.69;100.00;52404.78;5072314;28;20230;-79
2023/05/23 04:25:43;;;;;;;80.72;33.83;;;;;;;-145.69;100.00;52428.53;5058933;28;20195;-79
2023/05/23 04:28:10;;;;;;;68.55;31.02;;;;;;;-145.69;100.00;52400.81;5072645;28;20194;-78
2023/05/23 04:30:37;;;;;;;53.05;26.00;;;;;;;-145.69;100.00;52428.53;5076135;28;20198;-78
2023/05/23 04:33:06;;;;;;;48.65;25.52;;;;;;;-145.69;100.00;52412.69;5075962;28;20257;-79
2023/05/23 04:35:37;;;;;;;89.00;37.30;;;;;;;-145.69;100.00;52444.38;5070122;28;20218;-79
2023/05/23 04:38:05;;;;;;;62.22;29.75;;;;;;;-145.69;100.00;52438.44;5064547;28;20199;-79
2023/05/23 04:40:32;;;;;;;74.82;31.77;;;;;;;-145.69;100.00;52404.78;5055423;28;20203;-79
2023/05/23 04:42:58;;;;;;;74.68;33.90;;;;;;;-145.69;100.00;52428.53;5055649;28;20658;-79
2023/05/23 04:45:25;;;;;;;69.68;31.90;;;;;;;-145.69;100.00;52440.44;5055624;28;20604;-79
2023/05/23 04:47:53;;;;;;;72.05;32.55;;;;;;;-145.69;100.00;52422.59;5060446;28;20191;-78
2023/05/23 04:50:20;;;;;;;85.55;34.65;;;;;;;-145.69;100.00;52428.53;5075445;28;20696;-79
2023/05/23 04:52:47;;;;;;;78.28;34.70;;;;;;;-145.69;100.00;52412.69;5057867;28;20230;-78
2023/05/23 04:55:15;;;;;;;79.72;34.50;;;;;;;-145.69;100.00;52396.84;5055621;28;20218;-79
2023/05/23 04:57:43;;;;;;;91.43;37.00;;;;;;;-145.69;100.00;52379.03;5055555;28;20209;-79
2023/05/23 05:00:10;;;;;;;84.57;35.38;;;;;;;-145.69;100.00;52420.63;5054677;28;20196;-79
2023/05/23 05:02:37;;;;;;;75.93;33.47;;;;;;;-145.69;100.00;52456.28;5050120;28;20208;-79
2023/05/23 05:05:04;;;;;;;93.70;38.70;;;;;;;-145.69;100.00;52406.75;5074748;28;20735;-78
2023/05/23 05:07:30;;;;;;;107.72;42.45;;;;;;;-145.69;100.00;52410.72;5075274;28;20199;-78
2023/05/23 05:09:57;;;;;;;106.35;41.80;;;;;;;-145.69;100.00;52400.81;5074874;28;20745;-78
2023/05/23 05:12:25;;;;;;;103.68;39.95;;;;;;;-145.69;100.00;52412.69;5065912;28;20570;-79
2023/05/23 05:14:51;;;;;;;96.75;38.00;;;;;;;-145.69;100.00;52416.66;5072273;28;20190;-79
2023/05/23 05:17:18;;;;;;;110.22;41.85;;;;;;;-145.69;100.00;52386.97;5075021;28;20203;-79
2023/05/23 05:19:45;;;;;;;102.03;41.03;;;;;;;-145.69;100.00;52402.78;5074339;28;20658;-79
2023/05/23 05:22:11;;;;;;;84.57;38.35;;;;;;;-145.69;100.00;52379.03;5054774;28;20195;-79
2023/05/23 05:24:39;;;;;;;79.50;36.33;;;;;;;-145.69;100.00;52396.84;5055059;28;20646;-79
2023/05/23 05:27:10;;;;;;;76.13;36.63;;;;;;;-145.69;100.00;52384.97;5055241;28;20207;-79
2023/05/23 05:29:38;;;;;;;78.35;36.13;;;;;;;-145.69;100.00;52390.91;5066527;28;20553;-80
2023/05/23 05:32:07;;;;;;;83.45;36.92;;;;;;;-145.69;100.00;52386.97;5074956;28;20202;-80
2023/05/23 05:34:34;;;;;;;83.53;37.65;;;;;;;-145.69;100.00;52436.47;5074206;28;20234;-81
2023/05/23 05:37:02;;;;;;;84.60;38.78;;;;;;;-145.69;100.00;52398.84;5057849;28;20666;-79
2023/05/23 05:39:29;;;;;;;98.40;42.80;;;;;;;-145.69;100.00;52392.91;5064345;28;20191;-81
2023/05/23 05:41:56;;;;;;;100.72;44.17;;;;;;;-145.69;100.00;52398.84;5057523;28;20749;-80
2023/05/23 05:44:25;;;;;;;106.88;43.90;;;;;;;-145.69;100.00;52392.91;5058503;28;20191;-79
2023/05/23 05:46:53;;;;;;;101.47;42.88;;;;;;;-145.69;100.00;52410.72;5054477;28;20294;-79
2023/05/23 05:49:20;;;;;;;118.93;44.15;;;;;;;-145.69;100.00;52396.84;5034451;28;20315;-79
2023/05/23 05:51:46;;;;;;;115.80;47.25;;;;;;;-145.69;100.00;52414.69;5053557;28;20210;-79
2023/05/23 05:54:13;;;;;;;106.72;45.40;;;;;;;-145.69;100.00;52388.94;5074460;28;20317;-79
2023/05/23 05:56:41;;;;;;;104.32;43.17;;;;;;;-145.69;100.00;52416.66;5074358;28;20203;-79
2023/05/23 05:59:07;;;;;;;105.82;43.47;;;;;;;-145.69;100.00;52392.91;5060053;28;20207;-80
2023/05/23 06:01:34;;;;;;;92.15;38.38;;;;;;;-145.69;100.00;52404.78;5054474;28;20206;-79
2023/05/23 06:04:02;;;;;;;81.15;38.45;;;;;;;-145.69;100.00;52456.28;5064508;28;20209;-79
2023/05/23 06:06:29;;;;;;;85.63;35.30;;;;;;;-145.69;100.00;52404.78;5074467;28;20199;-79
2023/05/23 06:08:55;;;;;;;80.88;36.08;;;;;;;-145.69;100.00;52404.78;5074434;28;20214;-83
2023/05/23 06:11:21;;;;;;;87.20;37.38;;;;;;;-145.69;100.00;52426.56;5074315;28;20592;-79
2023/05/23 06:13:48;;;;;;;90.28;37.20;;;;;;;-145.69;100.00;52420.63;5073997;28;20593;-79
2023/05/23 06:16:14;;;;;;;75.88;34.53;;;;;;;-145.69;100.00;52410.72;5061808;28;20195;-79
2023/05/23 06:18:41;;;;;;;89.63;38.42;;;;;;;-145.69;100.00;52416.66;5054269;28;20202;-80
2023/05/23 06:21:09;;;;;;;87.18;38.53;;;;;;;-145.69;100.00;52392.91;5054173;28;20196;-80
2023/05/23 06:23:36;;;;;;;89.10;38.75;;;;;;;-145.69;100.00;52379.03;5055263;28;20195;-79
2023/05/23 06:26:06;;;;;;;85.72;38.35;;;;;;;-145.69;100.00;52424.59;5053543;28;20196;-79
2023/05/23 06:28:33;;;;;;;89.10;39.78;;;;;;;-145.69;100.00;52438.44;5066641;28;20202;-80
2023/05/23 06:30:59;;;;;;;99.95;42.20;;;;;;;-145.69;100.00;52430.53;5073469;28;20286;-80
2023/05/23 06:33:26;;;;;;;90.07;38.13;;;;;;;-145.69;100.00;52440.44;5060714;28;20219;-79
2023/05/23 06:35:52;;;;;;;102.15;42.55;;;;;;;-145.69;100.00;52454.28;5053780;28;20208;-80
2023/05/23 06:38:20;;;;;;;97.53;41.40;;;;;;;-145.69;100.00;52420.63;5053675;28;20654;-79
2023/05/23 06:40:47;;;;;;;97.72;39.90;;;;;;;-145.69;100.00;52450.31;5067615;28;20206;-79
2023/05/23 06:43:13;;;;;;;99.82;40.80;;;;;;;-145.69;100.00;52406.75;5053157;28;20330;-80
2023/05/23 06:45:40;;;;;;;107.20;42.40;;;;;;;-145.69;100.00;52438.44;5053503;28;20621;-79
2023/05/23 06:48:06;;;;;;;98.25;42.42;;;;;;;-145.69;100.00;52418.63;5055110;28;20207;-80
2023/05/23 06:50:33;;;;;;;92.65;40.50;;;;;;;-145.69;100.00;52406.75;5073377;28;20206;-80
2023/05/23 06:52:59;;;;;;;104.13;44.50;;;;;;;-145.69;100.00;52436.47;5060427;28;20286;-80
2023/05/23 06:55:27;;;;;;;101.35;43.25;;;;;;;-145.69;100.00;52450.31;5053446;28;20203;-79
2023/05/23 06:57:55;;;;;;;101.72;42.63;;;;;;;-145.69;100.00;52410.72;5054432;28;20196;-80
2023/05/23 07:00:22;;;;;;;94.53;40.72;;;;;;;-145.69;100.00;52416.66;5053364;28;20206;-80
2023/05/23 07:02:48;;;;;;;104.45;42.90;;;;;;;-145.69;100.00;52416.66;5052958;28;20196;-80
2023/05/23 07:05:16;;;;;;;103.75;42.38;;;;;;;-145.69;100.00;52400.81;5053968;28;20256;-80
2023/05/23 07:07:43;;;;;;;94.25;40.55;;;;;;;-145.69;100.00;52428.53;5053100;28;20673;-80
2023/05/23 07:10:10;;;;;;;92.35;42.03;;;;;;;-145.69;100.00;52420.63;5047624;28;20191;-80
2023/05/23 07:12:37;;;;;;;106.40;42.83;;;;;;;-145.69;100.00;52414.69;5033076;28;20555;-80
2023/05/23 07:15:05;;;;;;;89.63;41.13;;;;;;;-145.69;100.00;52436.47;5044841;28;20708;-81
2023/05/23 07:17:31;;;;;;;95.88;43.85;;;;;;;-145.69;100.00;52424.59;5054815;28;20197;-88
2023/05/23 07:19:58;;;;;;;119.45;47.05;;;;;;;-145.69;100.00;52408.75;5053043;28;20654;-81
2023/05/23 07:22:24;;;;;;;143.88;51.50;;;;;;;-145.69;100.00;52422.59;5052595;28;20290;-80
2023/05/23 07:24:51;;;;;;;154.38;54.85;;;;;;;-145.69;100.00;52462.22;5052842;28;20214;-82
2023/05/23 07:27:22;;;;;;;133.85;53.05;;;;;;;-145.69;100.00;52448.34;5067643;28;20646;-81
2023/05/23 07:29:50;;;;;;;145.32;55.53;;;;;;;-145.69;100.00;52448.34;5073049;28;20205;-81
2023/05/23 07:32:17;;;;;;;158.40;58.03;;;;;;;-145.69;100.00;52416.66;5072683;28;20658;-80
2023/05/23 07:34:43;;;;;;;149.63;56.60;;;;;;;-145.69;100.00;52404.78;5072814;28;20317;-81
2023/05/23 07:37:10;;;;;;;152.98;57.85;;;;;;;-145.69;100.00;52426.56;5072649;28;20203;-82
2023/05/23 07:39:36;;;;;;;165.00;59.80;;;;;;;-145.69;100.00;52432.50;5072183;28;20199;-81
2023/05/23 07:42:03;;;;;;;172.10;61.25;;;;;;;-145.69;100.00;52410.72;5062952;28;20276;-81
2023/05/23 07:44:30;;;;;;;174.18;61.97;;;;;;;-145.69;100.00;52448.34;5052791;28;20204;-80
2023/05/23 07:46:57;;;;;;;160.88;60.97;;;;;;;-145.69;100.00;52426.56;5052633;28;20203;-83
2023/05/23 07:49:24;;;;;;;160.38;59.65;;;;;;;-145.69;100.00;52438.44;5053290;28;20227;-79
2023/05/23 07:51:51;;;;;;;152.95;57.40;;;;;;;-145.69;100.00;52444.38;5072734;28;20281;-81
2023/05/23 07:54:19;;;;;;;135.27;55.70;;;;;;;-145.69;100.00;52468.16;5072531;28;20229;-82
2023/05/23 07:56:46;;;;;;;139.63;57.25;;;;;;;-145.69;100.00;52408.75;5072957;28;20627;-80
2023/05/23 07:59:12;;;;;;;142.65;54.08;;;;;;;-145.69;100.00;52406.75;5072838;28;20206;-81
2023/05/23 08:01:39;;;;;;;144.02;58.78;;;;;;;-145.69;100.00;52422.59;5060626;28;20195;-84
2023/05/23 08:04:07;;;;;;;151.73;57.45;;;;;;;-145.69;100.00;52456.28;5056773;28;20191;-79
2023/05/23 08:06:33;;;;;;;143.25;56.22;;;;;;;-145.69;100.00;52422.59;5067867;28;20226;-81
2023/05/23 08:09:01;;;;;;;141.60;56.33;;;;;;;-145.69;100.00;52460.22;5076560;28;20206;-78
2023/05/23 08:11:29;;;;;;;138.57;56.10;;;;;;;-145.69;100.00;52420.63;5076816;28;20199;-80
2023/05/23 08:13:55;;;;;;;124.07;51.08;;;;;;;-145.69;100.00;52470.13;5076682;28;20226;-78
2023/05/23 08:16:22;;;;;;;138.23;54.95;;;;;;;-145.69;100.00;52412.69;5066992;28;20196;-78
2023/05/23 08:18:48;;;;;;;135.85;55.72;;;;;;;-145.69;100.00;52440.44;5056450;28;20210;-78
2023/05/23 08:21:16;;;;;;;135.73;56.33;;;;;;;-145.69;100.00;52444.38;5068254;28;20194;-79
2023/05/23 08:23:42;;;;;;;131.43;56.03;;;;;;;-145.69;100.00;52448.34;5060333;28;20207;-78
2023/05/23 08:26:09;;;;;;;131.63;54.28;;;;;;;-145.69;100.00;52444.38;5056120;28;20203;-79
2023/05/23 08:28:35;;;;;;;139.30;57.95;;;;;;;-145.69;100.00;52412.69;5056227;28;20705;-83
2023/05/23 08:31:02;;;;;;;137.88;55.88;;;;;;;-145.69;100.00;52408.75;5056288;28;20207;-78
2023/05/23 08:33:31;;;;;;;137.18;55.75;;;;;;;-145.69;100.00;52420.63;5055978;28;20199;-81
2023/05/23 08:35:57;;;;;;;138.57;52.55;;;;;;;-145.69;100.00;52454.28;5056967;28;20199;-85
2023/05/23 08:38:26;;;;;;;113.05;50.65;;;;;;;-145.69;100.00;52432.50;5075656;28;20210;-80
2023/05/23 08:40:57;;;;;;;113.78;50.65;;;;;;;-145.69;100.00;52422.59;5075841;28;20202;-79
2023/05/23 08:43:24;;;;;;;103.22;45.97;;;;;;;-145.69;100.00;52422.59;5065420;28;20201;-80
2023/05/23 08:45:52;;;;;;;103.25;46.92;;;;;;;-145.69;100.00;52412.69;5055845;28;20215;-79
2023/05/23 08:48:20;;;;;;;101.47;47.85;;;;;;;-145.69;100.00;52444.38;5055460;28;20658;-80
2023/05/23 08:50:49;;;;;;;90.45;44.05;;;;;;;-145.69;100.00;52420.63;5055727;28;20550;-79
2023/05/23 08:53:19;;;;;;;97.70;45.22;;;;;;;-145.69;100.00;52416.66;5055728;28;20203;-81
2023/05/23 08:55:47;;;;;;;80.47;41.80;;;;;;;-145.69;100.00;52416.66;5061684;28;20318;-83
2023/05/23 08:58:19;;;;;;;75.47;39.80;;;;;;;-145.69;100.00;52394.88;5055663;28;20295;-83
2023/05/23 09:00:47;;;;;;;79.65;41.25;;;;;;;-145.69;100.00;52396.84;5055331;28;20252;-83
2023/05/23 09:03:13;;;;;;;71.97;39.78;;;;;;;-145.69;100.00;52381.00;5065502;28;20202;-83
2023/05/23 09:05:40;;;;;;;67.65;37.10;;;;;;;-145.69;100.00;52418.63;5075816;28;20206;-88
2023/05/23 09:08:06;;;;;;;73.40;39.83;;;;;;;-145.69;100.00;52396.84;5061495;28;20191;-82
2023/05/23 09:10:34;;;;;;;76.75;38.45;;;;;;;-145.69;100.00;52398.84;5055464;28;20550;-82
2023/05/23 09:13:04;;;;;;;65.38;35.47;;;;;;;-145.69;100.00;52434.47;5055882;28;20222;-82
2023/05/23 09:15:30;;;;;;;73.38;37.17;;;;;;;-145.69;100.00;52383.00;5055258;28;20720;-80
2023/05/23 09:18:00;;;;;;;69.90;35.63;;;;;;;-145.69;100.00;52377.06;5055096;28;20203;-83
2023/05/23 09:20:28;;;;;;;64.90;34.50;;;;;;;-145.69;100.00;52412.69;5060278;28;20216;-84
2023/05/23 09:22:55;;;;;;;64.32;35.08;;;;;;;-145.69;100.00;52404.78;5065206;28;20198;-84
2023/05/23 09:25:22;;;;;;;61.88;34.38;;;;;;;-145.69;100.00;52396.84;5075444;28;20275;-84
2023/05/23 09:27:48;;;;;;;62.47;34.70;;;;;;;-145.69;100.00;52365.16;5076011;28;20202;-82
2023/05/23 09:30:17;;;;;;;62.45;35.05;;;;;;;-145.69;100.00;52384.97;5075197;28;20209;-87
2023/05/23 09:32:58;;;;;;;60.92;34.03;;;;;;;-145.69;100.00;52400.81;5061508;28;20556;-87
2023/05/23 09:35:24;;;;;;;64.45;36.78;;;;;;;-145.69;100.00;52406.75;5055439;28;20253;-82
2023/05/23 09:37:54;;;;;;;64.53;35.00;;;;;;;-145.69;100.00;52381.00;5055182;28;20204;-80
2023/05/23 09:40:21;;;;;;;64.80;37.08;;;;;;;-145.69;100.00;52398.84;5055305;28;20234;-86
2023/05/23 09:42:48;;;;;;;63.65;36.55;;;;;;;-145.69;100.00;52383.00;5054977;28;20314;-79
2023/05/23 09:45:17;;;;;;;62.05;37.42;;;;;;;-145.69;100.00;52422.59;5075358;28;20209;-83
2023/05/23 09:47:49;;;;;;;64.50;37.28;;;;;;;-145.69;100.00;52406.75;5075010;28;20629;-81
2023/05/23 09:50:16;;;;;;;62.95;38.65;;;;;;;-145.69;100.00;52375.06;5074637;28;20234;-79
2023/05/23 09:52:42;;;;;;;57.05;34.55;;;;;;;-145.69;100.00;52384.97;5066036;28;20194;-79
2023/05/23 09:55:10;;;;;;;58.58;35.30;;;;;;;-145.69;100.00;52400.81;5059593;28;20233;-83
2023/05/23 09:57:47;;;;;;;56.55;34.53;;;;;;;-145.69;100.00;52379.03;5063634;28;20207;-79
2023/05/23 10:00:15;;;;;;;59.97;33.58;;;;;;;-145.69;100.00;52392.91;5054895;28;20203;-79
2023/05/23 10:02:54;;;;;;;53.55;32.83;;;;;;;-145.69;100.00;52398.84;5055780;28;20198;-81
2023/05/23 10:05:31;;;;;;;48.83;31.48;;;;;;;-145.69;100.00;52404.78;5054868;28;20203;-78
2023/05/23 10:08:00;;;;;;;52.63;32.85;;;;;;;-145.69;100.00;52412.69;5064433;28;20222;-79
2023/05/23 10:10:31;;;;;;;51.88;32.08;;;;;;;-145.69;100.00;52384.97;5074435;28;20214;-80
2023/05/23 10:12:59;;;;;;;52.72;31.88;;;;;;;-145.69;100.00;52365.16;5074118;28;20199;-79
2023/05/23 10:15:31;;;;;;;49.13;30.67;;;;;;;-145.69;100.00;52371.13;5074340;28;20233;-79
2023/05/23 10:18:04;;;;;;;50.53;30.00;;;;;;;-145.69;100.00;52394.88;5074119;28;20199;-83
2023/05/23 10:20:32;;;;;;;46.15;29.73;;;;;;;-145.69;100.00;52363.19;5058197;28;20199;-79
2023/05/23 10:23:01;;;;;;;45.00;27.42;;;;;;;-145.69;100.00;52357.25;5062774;28;20206;-79
2023/05/23 10:25:27;;;;;;;45.25;26.83;;;;;;;-145.69;100.00;52341.41;5073456;28;20199;-78
2023/05/23 10:27:58;;;;;;;43.75;26.40;;;;;;;-145.69;100.00;52367.16;5068243;28;20241;-80
2023/05/23 10:30:26;;;;;;;46.10;26.38;;;;;;;-145.69;100.00;52349.31;5055007;28;20298;-79
2023/05/23 10:32:53;;;;;;;48.92;28.40;;;;;;;-145.69;100.00;52359.22;5053275;28;20439;-81
2023/05/23 10:35:27;;;;;;;41.63;26.30;;;;;;;-145.69;100.00;52345.38;5053932;28;20230;-79
2023/05/23 10:38:00;;;;;;;38.53;24.58;;;;;;;-145.69;100.00;52317.66;5053882;28;20257;-82
2023/05/23 10:40:34;;;;;;;34.00;22.27;;;;;;;-145.69;100.00;52317.66;5053820;28;20199;-78
2023/05/23 10:43:07;;;;;;;35.95;22.73;;;;;;;-145.69;100.00;52327.53;5053302;28;20203;-80
2023/05/23 10:45:42;;;;;;;32.38;21.98;;;;;;;-145.69;100.00;52315.66;5053930;28;20206;-82
2023/05/23 10:48:21;;;;;;;35.72;21.92;;;;;;;-145.69;100.00;52345.38;5053617;28;20206;-85
2023/05/23 10:51:02;;;;;;;26.77;18.70;;;;;;;-145.69;100.00;52329.53;5053642;28;20741;-79
2023/05/23 10:53:29;;;;;;;29.15;18.95;;;;;;;-145.69;100.00;52349.31;5065788;28;20248;-79
2023/05/23 10:55:56;;;;;;;29.70;18.33;;;;;;;-145.69;100.00;52333.47;5067735;28;20227;-80
2023/05/23 10:58:23;;;;;;;28.90;18.67;;;;;;;-145.69;100.00;52329.53;5053555;28;20199;-81